Orto / Ocaso: 05:03 / 19:23 UTC (Datos para LEAX 23-05-2019)

[fuente: ADDS]

METAR:


LEMG 231300Z 14010KT 100V190 CAVOK 26/03 Q1017 NOSIG =
TAF LEMG 231100Z 2312/2412 13010KT CAVOK TX29/2411Z TN15/2405Z BECMG 2319/2321 VRB02KT BECMG 2400/2402 29007KT BECMG 2409/2411 16008KT LEGR 231300Z VRB05KT 9999 FEW075 30/06 Q1017 =
TAF LEGR 230800Z 2309/2409 VRB03KT 9999 FEW060 TX31/2314Z TN11/2405Z BECMG 2314/2316 23010KT BECMG 2320/2322 VRB03KT LEZL 231300Z 06004KT CAVOK 31/10 Q1015 NOSIG =
TAF LEZL 230800Z 2309/2409 VRB02KT CAVOK TX33/2315Z TN17/2405Z PROB40 TEMPO 2317/2321 25010KT LEAM 231300Z 22006KT 170V260 9999 FEW060 23/15 Q1016 =
TAF LEAM 230800Z 2309/2409 21007KT CAVOK TX26/2310Z TN17/2405Z LEBA 231300Z 26005KT 9999 FEW049 32/09 Q1015 =
TAF LEBA 231100Z 2312/2321 26006KT CAVOK LEJR 231300Z VRB04KT CAVOK 32/08 Q1016 =
TAF LEJR 231100Z 2312/2412 VRB03KT CAVOK TX33/2314Z TN14/2406Z BECMG 2314/2316 27012KT BECMG 2319/2321 VRB03KT GEML 231300Z 03007KT 350V080 9999 FEW010 24/14 Q1016 =
TAF GEML 230800Z 2309/2409 36005KT 9999 FEW015 TX24/2312Z TN17/2405Z PROB30 TEMPO 2402/2406 3000 BR LXGB 231250Z 09008KT CAVOK 23/10 Q1017 NOSIG =
TAF LXGB 231047Z 2312/2321 12007KT CAVOK

TAFOR:


TAF LEMG 231100Z 2312/2412 13010KT CAVOK TX29/2411Z TN15/2405Z BECMG 2319/2321 VRB02KT BECMG 2400/2402 29007KT BECMG 2409/2411 16008KT =
TAF LEGR 230800Z 2309/2409 VRB03KT 9999 FEW060 TX31/2314Z TN11/2405Z BECMG 2314/2316 23010KT BECMG 2320/2322 VRB03KT =
TAF LEZL 230800Z 2309/2409 VRB02KT CAVOK TX33/2315Z TN17/2405Z PROB40 TEMPO 2317/2321 25010KT =
TAF LEAM 230800Z 2309/2409 21007KT CAVOK TX26/2310Z TN17/2405Z =
TAF LEBA 231100Z 2312/2321 26006KT CAVOK =
TAF LEJR 231100Z 2312/2412 VRB03KT CAVOK TX33/2314Z TN14/2406Z BECMG 2314/2316 27012KT BECMG 2319/2321 VRB03KT =
TAF GEML 230800Z 2309/2409 36005KT 9999 FEW015 TX24/2312Z TN17/2405Z PROB30 TEMPO 2402/2406 3000 BR =
TAF LXGB 231047Z 2312/2321 12007KT CAVOK =

Recuerde que, aunque regularmente actualizada, la información meteorológica aquí presentada no debe ser utilizada para la planificación de vuelos. Si lo desea, puede consultar la información meteorológica adecuada, tanto de aeródromos como en ruta, por las vías oficialmente establecidas en la legislación -> AQUí